createdAt,value
2017-09-24T00:00:44.116Z,95.50
2017-09-24T00:03:11.822Z,95.40
2017-09-24T00:05:39.392Z,95.30
2017-09-24T00:08:06.965Z,95.30
2017-09-24T00:10:34.538Z,95.50
2017-09-24T00:13:02.206Z,95.60
2017-09-24T00:15:29.799Z,95.70
2017-09-24T00:17:58.232Z,95.70
2017-09-24T00:20:26.687Z,95.70
2017-09-24T00:22:54.544Z,95.70
2017-09-24T00:25:22.126Z,95.90
2017-09-24T00:27:49.805Z,95.90
2017-09-24T00:30:17.405Z,96.00
2017-09-24T00:32:45.799Z,96.00
2017-09-24T00:35:13.387Z,96.00
2017-09-24T00:37:40.971Z,96.10
2017-09-24T00:40:08.572Z,96.00
2017-09-24T00:42:36.163Z,96.20
2017-09-24T00:45:04.529Z,96.30
2017-09-24T00:47:32.157Z,96.30
2017-09-24T00:50:00.511Z,96.30
2017-09-24T00:52:28.136Z,96.30
2017-09-24T00:54:55.889Z,96.40
2017-09-24T00:57:23.522Z,96.40
2017-09-24T00:59:51.865Z,96.40
2017-09-24T01:02:19.449Z,96.40
2017-09-24T01:04:47.791Z,96.40
2017-09-24T01:07:16.809Z,96.40
2017-09-24T01:09:45.149Z,96.30
2017-09-24T01:12:12.742Z,96.30
2017-09-24T01:14:40.318Z,96.30
2017-09-24T01:17:08.734Z,96.20
2017-09-24T01:19:36.329Z,96.20
2017-09-24T01:22:04.007Z,96.20
2017-09-24T01:24:32.349Z,96.10
2017-09-24T01:26:59.949Z,96.10
2017-09-24T01:29:28.443Z,96.30
2017-09-24T01:31:56.003Z,96.20
2017-09-24T01:34:23.855Z,96.30
2017-09-24T01:36:52.254Z,96.30
2017-09-24T01:39:19.866Z,96.30
2017-09-24T01:41:47.438Z,96.20
2017-09-24T01:44:15.013Z,96.10
2017-09-24T01:46:43.388Z,96.10
2017-09-24T01:49:11.743Z,96.20
2017-09-24T01:51:39.324Z,96.10
2017-09-24T01:54:07.663Z,96.20
2017-09-24T01:56:35.630Z,96.20
2017-09-24T01:59:03.283Z,96.10
2017-09-24T02:01:30.851Z,96.10
2017-09-24T02:03:58.439Z,96.20
2017-09-24T02:06:26.008Z,96.30
2017-09-24T02:08:54.709Z,96.50
2017-09-24T02:11:22.289Z,96.50
2017-09-24T02:13:49.870Z,96.60
2017-09-24T02:16:17.445Z,96.60
2017-09-24T02:18:45.527Z,96.60
2017-09-24T02:21:13.136Z,96.90
2017-09-24T02:23:40.785Z,96.90
2017-09-24T02:26:08.400Z,97.10
2017-09-24T02:28:35.982Z,97.20
2017-09-24T02:31:04.304Z,96.90
2017-09-24T02:33:32.422Z,96.90
2017-09-24T02:36:00.032Z,96.80
2017-09-24T02:38:27.646Z,96.70
2017-09-24T02:40:56.011Z,96.70
2017-09-24T02:43:23.596Z,96.60
2017-09-24T02:45:51.182Z,97.10
2017-09-24T02:48:18.966Z,96.80
2017-09-24T02:50:47.781Z,97.10
2017-09-24T02:53:15.358Z,97.10
2017-09-24T02:55:43.698Z,97.40
2017-09-24T02:58:11.276Z,97.30
2017-09-24T03:00:38.863Z,97.50
2017-09-24T03:03:07.200Z,97.60
2017-09-24T03:05:35.164Z,97.60
2017-09-24T03:08:02.730Z,97.50
2017-09-24T03:10:30.290Z,97.50
2017-09-24T03:12:57.876Z,97.40
2017-09-24T03:15:26.241Z,97.30
2017-09-24T03:17:53.827Z,97.30
2017-09-24T03:20:21.411Z,97.30
2017-09-24T03:22:49.765Z,97.30
2017-09-24T03:25:17.335Z,97.30
2017-09-24T03:27:44.920Z,97.60
2017-09-24T03:30:12.507Z,97.90
2017-09-24T03:32:40.387Z,97.60
2017-09-24T03:35:07.963Z,97.60
2017-09-24T03:37:35.542Z,97.60
2017-09-24T03:40:03.125Z,97.60
2017-09-24T03:42:30.694Z,97.70
2017-09-24T03:44:58.280Z,97.90
2017-09-24T03:47:25.855Z,98.40
2017-09-24T03:49:54.948Z,98.70
2017-09-24T03:52:22.533Z,98.50
2017-09-24T03:54:50.924Z,98.50
2017-09-24T03:57:19.251Z,98.40
2017-09-24T03:59:47.111Z,98.40
2017-09-24T04:02:14.673Z,98.40
2017-09-24T04:04:42.234Z,98.40
2017-09-24T04:07:09.817Z,98.40
2017-09-24T04:09:37.392Z,98.30
2017-09-24T04:12:05.733Z,98.00
2017-09-24T04:14:33.318Z,97.90
2017-09-24T04:17:00.895Z,97.90
2017-09-24T04:19:29.238Z,97.90
2017-09-24T04:21:56.815Z,97.90
2017-09-24T04:24:25.170Z,97.70
2017-09-24T04:26:53.938Z,97.70
2017-09-24T04:29:21.505Z,97.50
2017-09-24T04:31:49.073Z,97.40
2017-09-24T04:34:17.415Z,97.30
2017-09-24T04:36:44.976Z,97.30
2017-09-24T04:39:12.555Z,97.40
2017-09-24T04:41:40.134Z,97.30
2017-09-24T04:44:07.987Z,97.30
2017-09-24T04:46:35.561Z,97.30
2017-09-24T04:49:03.135Z,97.40
2017-09-24T04:51:31.489Z,97.40
2017-09-24T04:53:59.058Z,97.20
2017-09-24T04:56:26.650Z,97.30
2017-09-24T04:58:54.335Z,97.30
2017-09-24T05:01:21.918Z,97.40
2017-09-24T05:03:49.490Z,97.40
2017-09-24T05:06:17.347Z,97.40
2017-09-24T05:08:44.924Z,97.40
2017-09-24T05:11:12.506Z,97.10
2017-09-24T05:13:40.845Z,97.10
2017-09-24T05:16:08.405Z,97.00
2017-09-24T05:18:35.991Z,97.00
2017-09-24T05:21:03.566Z,97.10
2017-09-24T05:23:31.929Z,96.90
2017-09-24T05:26:00.263Z,96.80
2017-09-24T05:28:28.131Z,96.80
2017-09-24T05:30:55.706Z,96.90
2017-09-24T05:33:24.037Z,96.90
2017-09-24T05:35:51.617Z,96.90
2017-09-24T05:38:19.176Z,96.90
2017-09-24T05:40:46.776Z,96.80
2017-09-24T05:43:14.366Z,96.80
2017-09-24T05:45:41.954Z,96.80
2017-09-24T05:48:09.519Z,96.90
2017-09-24T05:50:37.383Z,96.90
2017-09-24T05:53:04.947Z,97.00
2017-09-24T05:55:32.523Z,96.90
2017-09-24T05:58:00.147Z,96.90
2017-09-24T06:00:27.806Z,97.00
2017-09-24T06:02:55.580Z,97.00
2017-09-24T06:05:23.194Z,97.00
2017-09-24T06:07:51.550Z,97.30
2017-09-24T06:10:19.135Z,97.30
2017-09-24T06:12:47.738Z,97.40
2017-09-24T06:15:15.331Z,97.40
2017-09-24T06:17:43.674Z,97.70
2017-09-24T06:20:11.267Z,97.70
2017-09-24T06:22:38.836Z,97.90
2017-09-24T06:25:06.428Z,97.70
2017-09-24T06:27:34.763Z,97.80
2017-09-24T06:30:02.347Z,97.80
2017-09-24T06:32:29.928Z,98.00
2017-09-24T06:34:58.345Z,98.20
2017-09-24T06:37:25.917Z,98.20
2017-09-24T06:39:53.871Z,98.10
2017-09-24T06:42:21.455Z,98.50
2017-09-24T06:44:49.036Z,98.30
2017-09-24T06:47:16.615Z,98.00
2017-09-24T06:49:44.972Z,98.10
2017-09-24T06:52:12.567Z,98.10
2017-09-24T06:54:40.153Z,98.10
2017-09-24T06:57:07.754Z,98.30
2017-09-24T06:59:35.341Z,98.30
2017-09-24T07:02:03.205Z,98.10
2017-09-24T07:04:30.797Z,98.00
2017-09-24T07:06:58.391Z,98.00
2017-09-24T07:09:25.985Z,97.90
2017-09-24T07:11:53.578Z,97.80
2017-09-24T07:14:21.181Z,97.90
2017-09-24T07:16:48.755Z,98.00
2017-09-24T07:19:17.096Z,98.10
2017-09-24T07:21:44.690Z,98.10
2017-09-24T07:24:13.310Z,98.10
2017-09-24T07:26:40.891Z,98.10
2017-09-24T07:29:09.240Z,98.50
2017-09-24T07:31:36.825Z,98.50
2017-09-24T07:34:04.400Z,98.50
2017-09-24T07:36:32.046Z,98.50
2017-09-24T07:38:59.646Z,98.00
2017-09-24T07:41:28.032Z,97.70
2017-09-24T07:43:55.665Z,97.70
2017-09-24T07:46:23.563Z,97.70
2017-09-24T07:48:51.183Z,97.50
2017-09-24T07:51:18.779Z,97.30
2017-09-24T07:53:46.385Z,96.90
2017-09-24T07:56:14.747Z,97.00
2017-09-24T07:58:42.371Z,97.00
2017-09-24T08:01:09.970Z,96.70
2017-09-24T08:03:37.587Z,96.70
2017-09-24T08:06:05.242Z,96.60
2017-09-24T08:08:33.142Z,96.30
2017-09-24T08:11:00.726Z,96.10
2017-09-24T08:13:28.311Z,95.50
2017-09-24T08:15:55.923Z,95.10
2017-09-24T08:18:23.501Z,94.60
2017-09-24T08:20:51.852Z,93.80
2017-09-24T08:23:19.585Z,93.80
2017-09-24T08:25:47.197Z,93.80
2017-09-24T08:28:15.548Z,93.20
2017-09-24T08:30:43.589Z,93.20
2017-09-24T08:33:11.268Z,92.90
2017-09-24T08:35:39.626Z,91.40
2017-09-24T08:38:07.231Z,91.40
2017-09-24T08:40:34.828Z,91.30
2017-09-24T08:43:02.405Z,90.10
2017-09-24T08:45:30.009Z,90.60
2017-09-24T08:47:58.505Z,90.30
2017-09-24T08:50:26.078Z,90.30
2017-09-24T08:52:53.676Z,90.30
2017-09-24T08:55:21.272Z,90.70
2017-09-24T08:57:49.651Z,89.00
2017-09-24T09:00:17.239Z,89.00
2017-09-24T09:02:45.108Z,88.00
2017-09-24T09:05:12.723Z,88.10
2017-09-24T09:07:41.059Z,84.90
2017-09-24T09:10:08.661Z,84.90
2017-09-24T09:12:36.238Z,83.20
2017-09-24T09:15:03.830Z,81.20
2017-09-24T09:17:31.405Z,77.40
2017-09-24T09:19:59.000Z,78.70
2017-09-24T09:22:26.567Z,79.30
2017-09-24T09:24:54.177Z,77.70
2017-09-24T09:27:21.762Z,75.90
2017-09-24T09:29:49.716Z,76.30
2017-09-24T09:32:17.338Z,75.80
2017-09-24T09:34:57.146Z,74.50
2017-09-24T09:37:25.482Z,68.60
2017-09-24T09:39:53.055Z,68.60
2017-09-24T09:42:20.660Z,65.50
2017-09-24T09:44:51.232Z,68.10
2017-09-24T09:47:26.748Z,65.40
2017-09-24T09:49:54.331Z,67.50
2017-09-24T09:52:21.916Z,65.10
2017-09-24T09:54:49.533Z,64.60
2017-09-24T09:57:17.132Z,66.60
2017-09-24T09:59:44.708Z,66.80
2017-09-24T10:02:13.372Z,64.30
2017-09-24T10:04:40.949Z,64.30
2017-09-24T10:07:21.603Z,64.50
2017-09-24T10:10:00.916Z,64.50
2017-09-24T10:12:29.545Z,64.10
2017-09-24T10:14:57.917Z,61.70
2017-09-24T10:17:26.262Z,60.00
2017-09-24T10:19:53.863Z,60.80
2017-09-24T10:22:21.472Z,59.80
2017-09-24T10:24:49.084Z,59.40
2017-09-24T10:27:16.652Z,59.30
2017-09-24T10:29:56.226Z,61.00
2017-09-24T10:32:23.832Z,64.20
2017-09-24T10:34:52.196Z,61.60
2017-09-24T10:37:19.783Z,61.60
2017-09-24T10:39:47.377Z,61.00
2017-09-24T10:42:14.978Z,57.60
2017-09-24T10:44:43.615Z,56.60
2017-09-24T10:47:11.194Z,56.60
2017-09-24T10:49:38.783Z,56.20
2017-09-24T10:52:07.135Z,57.00
2017-09-24T10:54:34.735Z,57.00
2017-09-24T10:57:03.085Z,58.00
2017-09-24T10:59:30.670Z,58.00
2017-09-24T11:01:58.259Z,57.00
2017-09-24T11:04:25.837Z,56.30
2017-09-24T11:06:53.416Z,54.60
2017-09-24T11:09:20.991Z,55.90
2017-09-24T11:11:49.690Z,54.00
2017-09-24T11:14:18.037Z,54.90
2017-09-24T11:16:45.640Z,55.00
2017-09-24T11:19:13.229Z,57.80
2017-09-24T11:21:40.802Z,57.10
2017-09-24T11:24:08.397Z,55.70
2017-09-24T11:26:36.746Z,54.50
2017-09-24T11:29:04.350Z,54.40
2017-09-24T11:31:31.965Z,56.40
2017-09-24T11:33:59.608Z,55.70
2017-09-24T11:36:27.978Z,54.00
2017-09-24T11:38:55.807Z,53.90
2017-09-24T11:41:24.134Z,53.50
2017-09-24T11:43:51.699Z,53.40
2017-09-24T11:46:19.301Z,53.90
2017-09-24T11:48:47.688Z,53.30
2017-09-24T11:51:15.274Z,53.30
2017-09-24T11:53:42.850Z,52.90
2017-09-24T11:56:10.461Z,52.40
2017-09-24T11:58:38.806Z,52.20
2017-09-24T12:01:06.658Z,52.20
2017-09-24T12:03:34.243Z,51.90
2017-09-24T12:06:02.597Z,55.40
2017-09-24T12:08:30.203Z,55.30
2017-09-24T12:10:57.788Z,52.80
2017-09-24T12:13:25.401Z,52.50
2017-09-24T12:15:53.757Z,52.60
2017-09-24T12:18:21.391Z,52.60
2017-09-24T12:20:48.980Z,53.00
2017-09-24T12:23:17.178Z,53.60
2017-09-24T12:25:45.035Z,54.70
2017-09-24T12:28:12.608Z,54.10
2017-09-24T12:30:40.950Z,54.50
2017-09-24T12:33:08.511Z,54.40
2017-09-24T12:35:36.127Z,56.40
2017-09-24T12:38:03.711Z,54.60
2017-09-24T12:40:31.359Z,55.40
2017-09-24T12:42:58.937Z,54.10
2017-09-24T12:45:27.319Z,54.30
2017-09-24T12:47:54.898Z,54.40
2017-09-24T12:50:22.845Z,53.50
2017-09-24T12:52:50.457Z,53.00
2017-09-24T12:55:18.064Z,51.50
2017-09-24T12:57:45.654Z,52.20
2017-09-24T13:00:14.005Z,52.00
2017-09-24T13:02:41.607Z,51.40
2017-09-24T13:05:09.949Z,51.20
2017-09-24T13:07:37.681Z,51.20
2017-09-24T13:10:05.268Z,50.70
2017-09-24T13:12:32.847Z,51.50
2017-09-24T13:15:01.179Z,54.80
2017-09-24T13:17:29.056Z,54.80
2017-09-24T13:19:56.636Z,53.00
2017-09-24T13:22:24.236Z,48.50
2017-09-24T13:24:51.826Z,50.00
2017-09-24T13:27:19.398Z,52.40
2017-09-24T13:29:46.986Z,52.30
2017-09-24T13:32:14.566Z,53.20
2017-09-24T13:34:42.180Z,53.70
2017-09-24T13:37:09.756Z,53.30
2017-09-24T13:39:37.351Z,54.10
2017-09-24T13:42:04.921Z,53.90
2017-09-24T13:44:32.779Z,52.80
2017-09-24T13:47:00.372Z,54.20
2017-09-24T13:49:27.936Z,53.20
2017-09-24T13:51:55.521Z,52.20
2017-09-24T13:54:23.106Z,51.30
2017-09-24T13:56:50.712Z,50.60
2017-09-24T13:59:18.267Z,51.70
2017-09-24T14:01:45.892Z,51.80
2017-09-24T14:04:13.458Z,52.80
2017-09-24T14:06:41.052Z,52.60
2017-09-24T14:09:08.661Z,52.60
2017-09-24T14:11:37.287Z,51.60
2017-09-24T14:14:05.011Z,51.50
2017-09-24T14:16:32.728Z,53.20
2017-09-24T14:19:00.424Z,50.90
2017-09-24T14:21:28.751Z,50.80
2017-09-24T14:23:57.101Z,50.80
2017-09-24T14:26:24.671Z,50.80
2017-09-24T14:28:52.259Z,50.70
2017-09-24T14:31:19.849Z,51.00
2017-09-24T14:33:48.198Z,50.90
2017-09-24T14:36:15.815Z,50.90
2017-09-24T14:38:43.734Z,51.30
2017-09-24T14:41:11.315Z,50.80
2017-09-24T14:43:39.693Z,52.10
2017-09-24T14:46:08.098Z,55.90
2017-09-24T14:48:35.716Z,55.90
2017-09-24T14:51:03.401Z,54.30
2017-09-24T14:53:31.061Z,50.80
2017-09-24T14:55:59.424Z,51.10
2017-09-24T14:58:27.037Z,51.10
2017-09-24T15:00:55.867Z,50.90
2017-09-24T15:03:23.465Z,50.90
2017-09-24T15:05:51.049Z,52.10
2017-09-24T15:08:18.633Z,53.20
2017-09-24T15:10:46.230Z,54.70
2017-09-24T15:13:13.942Z,53.20
2017-09-24T15:15:41.538Z,54.20
2017-09-24T15:18:10.039Z,57.20
2017-09-24T15:20:37.712Z,57.30
2017-09-24T15:23:05.872Z,56.00
2017-09-24T15:25:33.473Z,57.20
2017-09-24T15:28:01.179Z,59.40
2017-09-24T15:30:29.573Z,58.70
2017-09-24T15:32:57.222Z,58.60
2017-09-24T15:35:25.663Z,58.60
2017-09-24T15:37:53.995Z,61.50
2017-09-24T15:40:21.830Z,61.30
2017-09-24T15:42:50.189Z,59.20
2017-09-24T15:45:18.049Z,59.20
2017-09-24T15:47:45.664Z,63.20
2017-09-24T15:50:13.256Z,65.40
2017-09-24T15:52:40.852Z,65.30
2017-09-24T15:55:09.205Z,67.40
2017-09-24T15:57:36.920Z,67.30
2017-09-24T16:00:04.535Z,67.60
2017-09-24T16:02:32.123Z,70.80
2017-09-24T16:04:59.706Z,72.00
2017-09-24T16:07:27.291Z,72.80
2017-09-24T16:09:54.970Z,73.60
2017-09-24T16:12:22.958Z,74.30
2017-09-24T16:14:51.285Z,73.40
2017-09-24T16:17:18.861Z,73.40
2017-09-24T16:19:46.447Z,75.60
2017-09-24T16:22:14.003Z,74.50
2017-09-24T16:24:41.682Z,73.90
2017-09-24T16:27:10.052Z,73.60
2017-09-24T16:29:38.417Z,74.00
2017-09-24T16:32:05.989Z,73.90
2017-09-24T16:34:34.354Z,74.50
2017-09-24T16:37:02.016Z,74.40
2017-09-24T16:39:29.593Z,74.80
2017-09-24T16:41:57.918Z,76.50
2017-09-24T16:44:25.785Z,76.30
2017-09-24T16:46:53.665Z,78.50
2017-09-24T16:49:21.260Z,81.70
2017-09-24T16:51:49.638Z,88.00
2017-09-24T16:54:17.998Z,90.60
2017-09-24T16:56:45.569Z,90.60
2017-09-24T16:59:13.947Z,92.10
2017-09-24T17:01:42.334Z,91.90
2017-09-24T17:04:10.726Z,92.40
2017-09-24T17:06:38.318Z,92.30
2017-09-24T17:09:05.922Z,92.40
2017-09-24T17:11:34.345Z,93.10
2017-09-24T17:14:01.977Z,93.10
2017-09-24T17:16:29.991Z,93.50
2017-09-24T17:18:57.598Z,94.40
2017-09-24T17:21:25.930Z,95.10
2017-09-24T17:23:53.551Z,95.10
2017-09-24T17:26:21.162Z,95.40
2017-09-24T17:28:48.767Z,94.80
2017-09-24T17:31:16.377Z,95.90
2017-09-24T17:33:43.976Z,96.10
2017-09-24T17:36:11.550Z,95.90
2017-09-24T17:38:39.439Z,95.80
2017-09-24T17:41:07.025Z,95.70
2017-09-24T17:43:34.610Z,95.30
2017-09-24T17:46:02.980Z,96.30
2017-09-24T17:48:31.341Z,96.60
2017-09-24T17:50:58.946Z,96.30
2017-09-24T17:53:26.523Z,95.90
2017-09-24T17:55:54.124Z,96.50
2017-09-24T17:58:21.713Z,96.30
2017-09-24T18:00:50.379Z,96.20
2017-09-24T18:03:18.730Z,93.80
2017-09-24T18:05:46.314Z,93.40
2017-09-24T18:08:14.699Z,95.70
2017-09-24T18:10:43.065Z,95.30
2017-09-24T18:13:11.505Z,95.10
2017-09-24T18:15:39.136Z,95.10
2017-09-24T18:18:06.849Z,94.60
2017-09-24T18:20:34.490Z,94.40
2017-09-24T18:23:02.147Z,96.20
2017-09-24T18:25:29.740Z,96.90
2017-09-24T18:27:57.389Z,97.40
2017-09-24T18:30:24.990Z,98.50
2017-09-24T18:32:53.658Z,99.20
2017-09-24T18:35:22.035Z,99.20
2017-09-24T18:37:50.442Z,99.30
2017-09-24T18:40:18.063Z,99.30
2017-09-24T18:42:45.999Z,99.70
2017-09-24T18:45:13.725Z,99.90
2017-09-24T18:47:41.388Z,99.90
2017-09-24T18:50:09.037Z,99.90
2017-09-24T18:52:37.483Z,99.90
2017-09-24T18:55:05.476Z,99.90
2017-09-24T18:57:33.092Z,99.90
2017-09-24T19:00:00.683Z,99.90
2017-09-24T19:02:28.360Z,99.90
2017-09-24T19:04:55.941Z,99.90
2017-09-24T19:07:23.611Z,99.90
2017-09-24T19:09:51.301Z,99.90
2017-09-24T19:12:18.995Z,99.90
2017-09-24T19:14:46.630Z,99.90
2017-09-24T19:17:14.400Z,99.90
2017-09-24T19:19:42.056Z,99.90
2017-09-24T19:22:09.690Z,99.90
2017-09-24T19:24:37.315Z,99.90
2017-09-24T19:27:05.965Z,99.90
2017-09-24T19:29:33.598Z,99.90
2017-09-24T19:32:01.984Z,99.90
2017-09-24T19:34:29.597Z,99.90
2017-09-24T19:36:58.003Z,99.90
2017-09-24T19:39:25.671Z,99.90
2017-09-24T19:41:53.262Z,99.90
2017-09-24T19:44:20.894Z,99.90
2017-09-24T19:46:48.498Z,99.90
2017-09-24T19:49:16.492Z,99.90
2017-09-24T19:51:44.121Z,99.90
2017-09-24T19:54:11.720Z,99.90
2017-09-24T19:56:39.373Z,99.90
2017-09-24T19:59:07.728Z,99.90
2017-09-24T20:01:35.371Z,99.90
2017-09-24T20:04:02.958Z,99.90
2017-09-24T20:06:30.753Z,99.90
2017-09-24T20:08:58.355Z,99.90
2017-09-24T20:11:26.233Z,99.90
2017-09-24T20:13:53.845Z,99.90
2017-09-24T20:16:21.663Z,99.90
2017-09-24T20:18:49.260Z,99.90
2017-09-24T20:21:17.062Z,99.90
2017-09-24T20:23:45.313Z,99.90
2017-09-24T20:26:12.897Z,99.90
2017-09-24T20:28:40.962Z,99.90
2017-09-24T20:31:08.544Z,99.90
2017-09-24T20:33:36.568Z,99.90
2017-09-24T20:36:04.155Z,99.90
2017-09-24T20:38:31.767Z,99.90
2017-09-24T20:40:59.476Z,99.90
2017-09-24T20:43:27.082Z,99.90
2017-09-24T20:45:55.491Z,99.90
2017-09-24T20:48:23.080Z,99.90
2017-09-24T20:50:50.700Z,99.90
2017-09-24T20:53:18.331Z,99.90
2017-09-24T20:55:46.714Z,99.90
2017-09-24T20:58:15.082Z,99.90
2017-09-24T21:00:42.696Z,99.90
2017-09-24T21:03:10.366Z,99.90
2017-09-24T21:05:39.172Z,99.90
2017-09-24T21:08:06.751Z,99.90
2017-09-24T21:10:34.324Z,99.90
2017-09-24T21:13:01.930Z,99.90
2017-09-24T21:15:29.542Z,99.90
2017-09-24T21:17:58.189Z,99.90
2017-09-24T21:20:26.615Z,99.90
2017-09-24T21:22:55.125Z,99.90
2017-09-24T21:25:22.787Z,99.90
2017-09-24T21:27:50.349Z,99.90
2017-09-24T21:30:17.936Z,99.90
2017-09-24T21:32:45.541Z,99.90
2017-09-24T21:35:13.177Z,99.90
2017-09-24T21:37:41.549Z,99.90
2017-09-24T21:40:09.478Z,99.90
2017-09-24T21:42:37.114Z,99.90
2017-09-24T21:45:04.693Z,99.90
2017-09-24T21:47:32.386Z,99.90
2017-09-24T21:50:00.029Z,99.90
2017-09-24T21:52:27.650Z,99.90
2017-09-24T21:54:55.249Z,99.90
2017-09-24T21:57:22.838Z,99.90
2017-09-24T21:59:50.419Z,99.90
2017-09-24T22:02:18.792Z,99.90
2017-09-24T22:04:47.127Z,99.90
2017-09-24T22:07:14.981Z,99.90
2017-09-24T22:09:42.630Z,99.90
2017-09-24T22:12:10.204Z,99.90
2017-09-24T22:14:37.796Z,99.90
2017-09-24T22:17:06.149Z,99.90
2017-09-24T22:19:33.745Z,99.90
2017-09-24T22:22:02.294Z,99.90
2017-09-24T22:24:29.881Z,99.90
2017-09-24T22:26:57.459Z,99.90
2017-09-24T22:29:25.056Z,99.90
2017-09-24T22:31:52.627Z,99.90
2017-09-24T22:34:20.530Z,99.80
2017-09-24T22:36:48.136Z,99.70
2017-09-24T22:39:15.714Z,99.80
2017-09-24T22:41:43.285Z,99.70
2017-09-24T22:44:10.850Z,99.80
2017-09-24T22:46:38.432Z,99.90
2017-09-24T22:49:06.007Z,99.70
2017-09-24T22:51:33.577Z,99.60
2017-09-24T22:54:01.286Z,99.60
2017-09-24T22:56:29.910Z,99.60
2017-09-24T22:58:57.574Z,99.60
2017-09-24T23:01:25.146Z,99.50
2017-09-24T23:03:52.749Z,99.70
2017-09-24T23:06:20.330Z,99.70
2017-09-24T23:08:48.682Z,99.60
2017-09-24T23:11:16.258Z,99.90
2017-09-24T23:13:44.607Z,99.60
2017-09-24T23:16:12.192Z,99.60
2017-09-24T23:18:40.650Z,99.60
2017-09-24T23:21:09.021Z,99.30
2017-09-24T23:23:36.663Z,99.60
2017-09-24T23:26:04.250Z,99.40
2017-09-24T23:28:31.844Z,99.30
2017-09-24T23:31:00.193Z,99.30
2017-09-24T23:33:27.782Z,99.30
2017-09-24T23:35:56.199Z,99.40
2017-09-24T23:38:23.775Z,99.30
2017-09-24T23:40:52.450Z,99.40
2017-09-24T23:43:20.027Z,99.40
2017-09-24T23:45:47.602Z,99.30
2017-09-24T23:48:15.183Z,99.20
2017-09-24T23:50:43.508Z,99.10
2017-09-24T23:53:11.076Z,99.10
2017-09-24T23:55:38.649Z,99.10
2017-09-24T23:58:06.234Z,99.10
